createdAt,value
2023-04-10T00:00:04.262Z,944.82
2023-04-10T00:05:03.208Z,944.78
2023-04-10T00:10:05.726Z,944.76
2023-04-10T00:15:03.035Z,944.82
2023-04-10T00:20:04.121Z,944.92
2023-04-10T00:25:03.053Z,944.94
2023-04-10T00:30:04.110Z,944.88
2023-04-10T00:35:03.173Z,944.92
2023-04-10T00:40:04.297Z,944.92
2023-04-10T00:45:03.114Z,944.96
2023-04-10T00:50:04.507Z,944.90
2023-04-10T00:55:03.143Z,944.96
2023-04-10T01:00:04.241Z,944.98
2023-04-10T01:05:04.162Z,944.98
2023-04-10T01:10:04.077Z,944.98
2023-04-10T01:15:03.082Z,944.94
2023-04-10T01:20:03.996Z,944.96
2023-04-10T01:25:03.119Z,944.98
2023-04-10T01:30:04.031Z,945.02
2023-04-10T01:35:03.098Z,944.98
2023-04-10T01:40:04.062Z,944.96
2023-04-10T01:45:04.208Z,944.94
2023-04-10T01:50:04.241Z,944.90
2023-04-10T01:55:03.051Z,944.94
2023-04-10T02:00:04.129Z,944.92
2023-04-10T02:05:03.207Z,944.90
2023-04-10T02:10:04.175Z,944.90
2023-04-10T02:15:03.077Z,944.88
2023-04-10T02:20:04.017Z,944.90
2023-04-10T02:25:03.131Z,944.88
2023-04-10T02:30:04.070Z,944.88
2023-04-10T02:35:03.112Z,944.92
2023-04-10T02:40:04.058Z,944.90
2023-04-10T02:45:03.270Z,944.96
2023-04-10T02:50:03.997Z,945.02
2023-04-10T02:55:03.094Z,945.06
2023-04-10T03:00:03.978Z,945.04
2023-04-10T03:05:03.085Z,944.98
2023-04-10T03:10:03.986Z,945.00
2023-04-10T03:15:03.137Z,945.06
2023-04-10T03:20:04.014Z,945.00
2023-04-10T03:25:03.043Z,945.12
2023-04-10T03:30:04.164Z,945.12
2023-04-10T03:35:03.068Z,945.14
2023-04-10T03:40:04.193Z,945.16
2023-04-10T03:45:03.102Z,945.16
2023-04-10T03:50:04.062Z,945.16
2023-04-10T03:55:03.048Z,945.20
2023-04-10T04:00:04.072Z,945.18
2023-04-10T04:05:03.154Z,945.18
2023-04-10T04:10:04.016Z,945.23
2023-04-10T04:15:04.661Z,945.23
2023-04-10T04:20:04.077Z,945.23
2023-04-10T04:25:03.204Z,945.20
2023-04-10T04:30:04.065Z,945.22
2023-04-10T04:35:03.162Z,945.23
2023-04-10T04:40:03.748Z,945.20
2023-04-10T04:45:03.134Z,945.14
2023-04-10T04:50:04.114Z,945.10
2023-04-10T04:55:03.036Z,945.10
2023-04-10T05:00:04.065Z,945.08
2023-04-10T05:05:02.995Z,945.04
2023-04-10T05:10:04.090Z,945.02
2023-04-10T05:15:02.999Z,944.94
2023-04-10T05:20:04.023Z,944.84
2023-04-10T05:25:03.100Z,944.84
2023-04-10T05:30:04.107Z,944.86
2023-04-10T05:35:03.100Z,944.86
2023-04-10T05:40:04.115Z,944.82
2023-04-10T05:45:03.006Z,944.82
2023-04-10T05:50:04.066Z,944.80
2023-04-10T05:55:03.051Z,944.76
2023-04-10T06:00:04.078Z,944.80
2023-04-10T06:05:03.122Z,944.72
2023-04-10T06:10:04.142Z,944.74
2023-04-10T06:15:03.177Z,944.74
2023-04-10T06:20:04.038Z,944.72
2023-04-10T06:25:03.010Z,944.72
2023-04-10T06:30:04.026Z,944.70
2023-04-10T06:35:03.035Z,944.72
2023-04-10T06:40:04.033Z,944.68
2023-04-10T06:45:03.085Z,944.68
2023-04-10T06:50:04.069Z,944.68
2023-04-10T06:55:03.128Z,944.68
2023-04-10T07:00:03.950Z,944.67
2023-04-10T07:05:03.151Z,944.67
2023-04-10T07:10:04.076Z,944.68
2023-04-10T07:15:03.078Z,944.68
2023-04-10T07:20:05.160Z,944.68
2023-04-10T07:25:03.084Z,944.67
2023-04-10T07:30:03.961Z,944.65
2023-04-10T07:35:03.109Z,944.65
2023-04-10T07:40:04.088Z,944.67
2023-04-10T07:45:02.989Z,944.68
2023-04-10T07:50:03.980Z,944.72
2023-04-10T07:55:03.200Z,944.70
2023-04-10T08:00:04.052Z,944.72
2023-04-10T08:05:03.218Z,944.72
2023-04-10T08:10:03.915Z,944.74
2023-04-10T08:15:03.113Z,944.76
2023-04-10T08:20:03.958Z,944.76
2023-04-10T08:25:03.140Z,944.74
2023-04-10T08:30:04.173Z,944.72
2023-04-10T08:35:03.229Z,944.80
2023-04-10T08:40:03.988Z,944.84
2023-04-10T08:45:03.095Z,944.90
2023-04-10T08:50:04.066Z,944.94
2023-04-10T08:55:03.122Z,945.00
2023-04-10T09:00:09.914Z,945.06
2023-04-10T09:05:03.079Z,945.10
2023-04-10T09:10:04.239Z,945.16
2023-04-10T09:15:03.113Z,945.22
2023-04-10T09:20:04.037Z,945.27
2023-04-10T09:25:03.277Z,945.35
2023-04-10T09:30:04.061Z,945.47
2023-04-10T09:35:04.127Z,945.53
2023-04-10T09:40:03.886Z,945.57
2023-04-10T09:45:03.019Z,945.61
2023-04-10T09:50:04.087Z,945.69
2023-04-10T09:55:03.100Z,945.74
2023-04-10T10:00:03.730Z,945.78
2023-04-10T10:05:03.082Z,945.88
2023-04-10T10:10:04.049Z,945.90
2023-04-10T10:15:03.202Z,946.02
2023-04-10T10:20:04.158Z,946.08
2023-04-10T10:25:03.028Z,946.22
2023-04-10T10:30:08.641Z,946.29
2023-04-10T10:35:03.070Z,946.35
2023-04-10T10:40:04.151Z,946.43
2023-04-10T10:45:03.203Z,946.49
2023-04-10T10:50:04.065Z,946.55
2023-04-10T10:55:03.171Z,946.67
2023-04-10T11:00:04.297Z,946.73
2023-04-10T11:05:03.060Z,946.76
2023-04-10T11:10:04.029Z,946.80
2023-04-10T11:15:03.177Z,946.86
2023-04-10T11:20:03.854Z,946.88
2023-04-10T11:25:03.182Z,947.02
2023-04-10T11:30:04.133Z,947.06
2023-04-10T11:35:05.042Z,947.12
2023-04-10T11:40:04.003Z,947.14
2023-04-10T11:45:03.104Z,947.24
2023-04-10T11:50:04.143Z,947.29
2023-04-10T11:55:03.171Z,947.33
2023-04-10T12:00:04.119Z,947.37
2023-04-10T12:05:03.040Z,947.41
2023-04-10T12:10:03.779Z,947.45
2023-04-10T12:15:03.161Z,947.47
2023-04-10T12:20:03.928Z,947.47
2023-04-10T12:25:03.115Z,947.49
2023-04-10T12:30:04.027Z,947.49
2023-04-10T12:35:03.043Z,947.55
2023-04-10T12:40:04.149Z,947.53
2023-04-10T12:45:03.136Z,947.55
2023-04-10T12:50:04.151Z,947.57
2023-04-10T12:55:03.001Z,947.57
2023-04-10T13:00:07.619Z,947.57
2023-04-10T13:05:03.126Z,947.55
2023-04-10T13:10:04.066Z,947.53
2023-04-10T13:15:03.197Z,947.51
2023-04-10T13:20:05.339Z,947.49
2023-04-10T13:25:03.156Z,947.45
2023-04-10T13:30:04.137Z,947.41
2023-04-10T13:35:03.087Z,947.43
2023-04-10T13:40:04.046Z,947.39
2023-04-10T13:45:03.011Z,947.41
2023-04-10T13:50:04.108Z,947.39
2023-04-10T13:55:03.055Z,947.39
2023-04-10T14:00:04.112Z,947.39
2023-04-10T14:05:03.050Z,947.41
2023-04-10T14:10:04.209Z,947.39
2023-04-10T14:15:03.194Z,947.37
2023-04-10T14:20:04.105Z,947.37
2023-04-10T14:25:12.231Z,947.39
2023-04-10T14:30:04.090Z,947.31
2023-04-10T14:35:03.113Z,947.24
2023-04-10T14:40:04.117Z,947.24
2023-04-10T14:45:03.032Z,947.28
2023-04-10T14:50:04.012Z,947.26
2023-04-10T14:55:03.129Z,947.22
2023-04-10T15:00:04.036Z,947.14
2023-04-10T15:05:03.149Z,947.08
2023-04-10T15:10:04.278Z,947.00
2023-04-10T15:15:03.137Z,946.90
2023-04-10T15:20:04.106Z,946.84
2023-04-10T15:25:03.055Z,946.78
2023-04-10T15:30:04.319Z,946.82
2023-04-10T15:35:04.060Z,946.82
2023-04-10T15:40:04.012Z,946.73
2023-04-10T15:45:03.137Z,946.67
2023-04-10T15:50:04.067Z,946.67
2023-04-10T15:55:03.114Z,946.59
2023-04-10T16:00:04.178Z,946.51
2023-04-10T16:05:03.367Z,946.45
2023-04-10T16:10:04.010Z,946.43
2023-04-10T16:15:03.101Z,946.39
2023-04-10T16:20:04.228Z,946.31
2023-04-10T16:30:04.121Z,946.18
2023-04-10T16:35:03.028Z,946.08
2023-04-10T16:40:03.997Z,946.06
2023-04-10T16:45:03.095Z,946.04
2023-04-10T16:50:03.999Z,945.98
2023-04-10T16:55:03.096Z,945.94
2023-04-10T17:00:04.191Z,945.84
2023-04-10T17:05:03.151Z,945.78
2023-04-10T17:10:04.157Z,945.76
2023-04-10T17:15:04.152Z,945.69
2023-04-10T17:20:04.090Z,945.59
2023-04-10T17:25:03.112Z,945.55
2023-04-10T17:30:04.234Z,945.51
2023-04-10T17:35:03.029Z,945.47
2023-04-10T17:40:03.984Z,945.45
2023-04-10T17:45:03.160Z,945.43
2023-04-10T17:50:04.163Z,945.35
2023-04-10T17:55:03.029Z,945.37
2023-04-10T18:00:04.089Z,945.29
2023-04-10T18:05:03.197Z,945.33
2023-04-10T18:10:04.070Z,945.22
2023-04-10T18:15:03.127Z,945.16
2023-04-10T18:20:04.144Z,945.16
2023-04-10T18:25:03.195Z,945.12
2023-04-10T18:30:04.030Z,945.14
2023-04-10T18:35:03.209Z,945.14
2023-04-10T18:40:13.758Z,945.06
2023-04-10T18:45:03.072Z,945.02
2023-04-10T18:50:04.028Z,945.04
2023-04-10T18:55:03.143Z,945.04
2023-04-10T19:00:03.996Z,944.96
2023-04-10T19:05:03.068Z,944.92
2023-04-10T19:10:04.919Z,944.94
2023-04-10T19:15:03.200Z,944.92
2023-04-10T19:20:04.687Z,944.86
2023-04-10T19:25:03.558Z,944.82
2023-04-10T19:30:04.276Z,944.78
2023-04-10T19:35:05.170Z,944.78
2023-04-10T19:40:05.127Z,944.74
2023-04-10T19:45:03.347Z,944.72
2023-04-10T19:50:03.934Z,944.61
2023-04-10T19:55:03.018Z,944.61
2023-04-10T20:00:05.187Z,944.55
2023-04-10T20:05:03.089Z,944.47
2023-04-10T20:10:03.999Z,944.45
2023-04-10T20:15:03.061Z,944.45
2023-04-10T20:20:04.121Z,944.39
2023-04-10T20:25:03.197Z,944.41
2023-04-10T20:30:04.082Z,944.37
2023-04-10T20:35:03.090Z,944.41
2023-04-10T20:40:04.135Z,944.47
2023-04-10T20:45:03.256Z,944.49
2023-04-10T20:50:04.025Z,944.51
2023-04-10T20:55:03.114Z,944.55
2023-04-10T21:00:03.993Z,944.53
2023-04-10T21:05:03.110Z,944.51
2023-04-10T21:10:04.181Z,944.55
2023-04-10T21:15:04.250Z,944.51
2023-04-10T21:20:04.190Z,944.57
2023-04-10T21:25:03.049Z,944.55
2023-04-10T21:30:04.057Z,944.49
2023-04-10T21:35:03.112Z,944.51
2023-04-10T21:40:04.053Z,944.49
2023-04-10T21:45:03.024Z,944.57
2023-04-10T21:50:04.179Z,944.57
2023-04-10T21:55:04.499Z,944.61
2023-04-10T22:00:04.055Z,944.61
2023-04-10T22:05:03.116Z,944.67
2023-04-10T22:10:04.171Z,944.65
2023-04-10T22:15:03.178Z,944.70
2023-04-10T22:20:04.045Z,944.72
2023-04-10T22:25:03.124Z,944.74
2023-04-10T22:30:09.084Z,944.74
2023-04-10T22:35:03.110Z,944.82
2023-04-10T22:40:04.090Z,944.82
2023-04-10T22:45:03.372Z,944.88
2023-04-10T22:50:03.989Z,944.86
2023-04-10T22:55:03.084Z,944.86
2023-04-10T23:00:04.129Z,944.88
2023-04-10T23:05:03.103Z,944.92
2023-04-10T23:10:04.142Z,944.98
2023-04-10T23:15:03.101Z,945.00
2023-04-10T23:20:04.198Z,945.04
2023-04-10T23:25:03.028Z,945.06
2023-04-10T23:30:04.516Z,945.06
2023-04-10T23:35:03.504Z,945.06
2023-04-10T23:40:04.209Z,945.06
2023-04-10T23:45:03.161Z,945.12
2023-04-10T23:50:04.110Z,945.16
2023-04-10T23:55:03.222Z,945.16
